Time;durP1;ratioP1;P1;durP2;ratioP2;P2;SDS_P1;SDS_P2;PMS_P1;PMS_P2;Temp;Humidity;BMP_temperature;BMP_pressure;BME280_temperature;BME280_humidity;BME280_pressure;Samples;Min_cycle;Max_cycle;Signal;HPM_P1;HPM_P2
2023/07/20 00:00:53;;;;;;;7.00;3.90;;;;;;;19.84;59.63;96001.05;107916;1283;24362;-73
2023/07/20 00:03:38;;;;;;;5.00;3.60;;;;;;;19.85;59.59;96005.23;107887;1278;22527;-73
2023/07/20 00:06:10;;;;;;;5.10;3.50;;;;;;;19.84;59.56;96003.74;107833;1280;22544;-72
2023/07/20 00:08:41;;;;;;;8.30;4.10;;;;;;;19.81;59.49;95997.54;107847;1283;22543;-73
2023/07/20 00:11:13;;;;;;;5.40;3.40;;;;;;;19.81;59.50;95996.08;107871;1279;22685;-73
2023/07/20 00:13:44;;;;;;;6.70;4.00;;;;;;;19.79;59.58;95989.49;107940;1277;22533;-72
2023/07/20 00:16:15;;;;;;;5.80;3.60;;;;;;;19.78;59.47;95987.02;107890;1279;25502;-72
2023/07/20 00:18:46;;;;;;;6.70;4.00;;;;;;;19.75;59.59;95986.66;107863;1281;22740;-72
2023/07/20 00:21:18;;;;;;;5.60;3.60;;;;;;;19.67;59.73;95983.77;107866;1280;22697;-72
2023/07/20 00:23:49;;;;;;;5.70;3.80;;;;;;;19.61;60.02;95982.89;107889;1283;22541;-72
2023/07/20 00:26:20;;;;;;;5.70;3.70;;;;;;;19.46;60.19;95982.54;107870;1283;25507;-72
2023/07/20 00:28:54;;;;;;;6.10;4.30;;;;;;;19.09;60.32;95982.83;107868;1277;22538;-72
2023/07/20 00:31:26;;;;;;;6.10;3.50;;;;;;;18.88;60.82;95979.36;107826;1283;24359;-72
2023/07/20 00:33:58;;;;;;;6.00;4.00;;;;;;;18.78;61.02;95979.48;107888;1283;22519;-72
2023/07/20 00:36:29;;;;;;;4.90;3.60;;;;;;;18.72;61.21;95975.17;107884;1283;22520;-72
2023/07/20 00:39:00;;;;;;;7.20;4.00;;;;;;;18.63;61.42;95977.87;107896;1277;24329;-72
2023/07/20 00:41:32;;;;;;;5.80;4.00;;;;;;;18.44;61.75;95979.95;107872;1276;22533;-72
2023/07/20 00:44:03;;;;;;;7.20;4.60;;;;;;;18.34;62.12;95978.09;107880;1277;22518;-72
2023/07/20 00:46:35;;;;;;;6.20;3.80;;;;;;;18.35;62.38;95977.67;107869;1280;22533;-72
2023/07/20 00:49:06;;;;;;;6.10;3.30;;;;;;;18.42;62.52;95978.59;107898;1280;22682;-72
2023/07/20 00:51:37;;;;;;;7.30;4.40;;;;;;;18.43;62.57;95976.38;107843;1280;22547;-72
2023/07/20 00:54:10;;;;;;;9.20;5.10;;;;;;;18.42;62.81;95973.36;107912;1274;22739;-72
2023/07/20 00:56:41;;;;;;;7.10;4.70;;;;;;;18.45;62.94;95972.77;107840;1283;22530;-72
2023/07/20 00:59:14;;;;;;;9.00;5.10;;;;;;;18.50;63.07;95974.13;107889;1277;22788;-71
2023/07/20 01:01:45;;;;;;;6.90;4.70;;;;;;;18.55;63.29;95973.94;107845;1283;22527;-71
2023/07/20 01:04:16;;;;;;;5.70;3.90;;;;;;;18.57;63.33;95973.30;107898;1283;22633;-74
2023/07/20 01:06:54;;;;;;;7.40;4.60;;;;;;;18.56;63.25;95975.73;107889;1283;22531;-72
2023/07/20 01:09:31;;;;;;;5.80;3.80;;;;;;;18.54;63.32;95973.07;107890;1280;24286;-72
2023/07/20 01:12:08;;;;;;;6.40;4.40;;;;;;;18.55;63.44;95964.83;107858;1277;22537;-72
2023/07/20 01:14:40;;;;;;;8.30;5.00;;;;;;;18.58;63.70;95962.06;107868;1280;22528;-72
2023/07/20 01:17:12;;;;;;;9.30;5.30;;;;;;;18.58;63.76;95962.55;107874;1280;22546;-71
2023/07/20 01:19:43;;;;;;;6.60;4.90;;;;;;;18.51;63.83;95961.48;107897;1276;24402;-72
2023/07/20 01:22:33;;;;;;;6.90;4.90;;;;;;;18.35;64.00;95959.64;107933;1283;22554;-72
2023/07/20 01:25:22;;;;;;;6.70;5.00;;;;;;;18.19;64.32;95960.06;107998;1283;22576;-72
2023/07/20 01:28:25;;;;;;;9.20;5.60;;;;;;;18.16;64.74;95957.38;108017;1279;22826;-70
2023/07/20 01:31:00;;;;;;;9.50;5.80;;;;;;;18.15;65.01;95953.89;107902;1280;22550;-72
2023/07/20 01:33:34;;;;;;;8.90;5.40;;;;;;;18.10;65.19;95955.98;107996;1283;24200;-72
2023/07/20 01:36:06;;;;;;;6.90;5.00;;;;;;;18.12;65.26;95955.73;107981;1280;22578;-72
2023/07/20 01:38:38;;;;;;;5.50;4.40;;;;;;;18.10;65.30;95954.91;107915;1283;22642;-73
2023/07/20 01:41:10;;;;;;;8.60;4.90;;;;;;;18.02;65.31;95952.56;107883;1283;25612;-72
2023/07/20 01:43:41;;;;;;;7.30;4.80;;;;;;;18.03;65.53;95952.50;107942;1283;24335;-72
2023/07/20 01:46:12;;;;;;;7.60;5.00;;;;;;;18.02;65.81;95953.48;107879;1281;22535;-72
2023/07/20 01:48:43;;;;;;;7.30;4.90;;;;;;;18.02;65.97;95954.41;107846;1283;22538;-72
2023/07/20 01:51:15;;;;;;;8.40;4.80;;;;;;;18.04;66.11;95950.45;107846;1280;24850;-72
2023/07/20 01:53:46;;;;;;;6.80;5.00;;;;;;;18.06;66.24;95941.63;107873;1283;22647;-72
2023/07/20 01:56:17;;;;;;;10.00;6.60;;;;;;;18.08;66.51;95938.70;107878;1283;22537;-72
2023/07/20 01:58:48;;;;;;;11.10;6.60;;;;;;;18.08;66.85;95938.77;107843;1283;25327;-72
2023/07/20 02:01:19;;;;;;;8.10;6.20;;;;;;;18.10;67.09;95943.09;107880;1280;22531;-72
2023/07/20 02:03:50;;;;;;;7.90;5.70;;;;;;;18.11;67.17;95949.79;107839;1283;26476;-72
2023/07/20 02:06:22;;;;;;;8.40;5.20;;;;;;;18.05;67.24;95956.08;107874;1283;23135;-71
2023/07/20 02:08:54;;;;;;;8.00;4.90;;;;;;;17.88;67.21;95966.47;107797;1283;22543;-72
2023/07/20 02:11:25;;;;;;;4.70;3.60;;;;;;;17.72;67.23;95972.48;107776;1279;22521;-72
2023/07/20 02:13:56;;;;;;;6.40;3.80;;;;;;;17.66;67.39;95977.25;107867;1283;22589;-72
2023/07/20 02:16:27;;;;;;;5.40;3.90;;;;;;;17.65;67.57;95976.14;107870;1283;22654;-72
2023/07/20 02:18:58;;;;;;;7.40;4.50;;;;;;;17.73;67.78;95979.15;107879;1280;22643;-72
2023/07/20 02:21:29;;;;;;;7.70;4.80;;;;;;;17.87;67.91;95979.25;107885;1283;22547;-72
2023/07/20 02:24:01;;;;;;;5.30;4.30;;;;;;;18.01;67.86;95983.41;107881;1283;22557;-72
2023/07/20 02:26:32;;;;;;;6.50;4.50;;;;;;;18.12;67.78;95990.45;107840;1277;24290;-71
2023/07/20 02:29:04;;;;;;;5.80;4.60;;;;;;;18.26;67.54;95995.11;107854;1277;22530;-72
2023/07/20 02:31:37;;;;;;;6.20;5.00;;;;;;;18.40;67.35;96000.33;107878;1283;25303;-72
2023/07/20 02:34:08;;;;;;;11.60;4.70;;;;;;;18.50;67.13;95988.31;107868;1283;24255;-72
2023/07/20 02:36:39;;;;;;;10.90;5.80;;;;;;;18.53;67.25;95988.02;107890;1283;22541;-72
2023/07/20 02:39:10;;;;;;;13.30;6.50;;;;;;;18.52;67.88;95963.38;107853;1280;22650;-72
2023/07/20 02:41:42;;;;;;;10.00;6.20;;;;;;;18.51;68.42;95960.81;107851;1283;22554;-72
2023/07/20 02:44:14;;;;;;;11.00;6.00;;;;;;;18.42;68.83;95975.24;107963;1280;22531;-72
2023/07/20 02:46:45;;;;;;;8.30;5.40;;;;;;;18.26;69.11;95985.54;107867;1283;24433;-72
2023/07/20 02:49:16;;;;;;;9.90;5.60;;;;;;;18.11;69.50;95990.64;107865;1280;22535;-72
2023/07/20 02:51:48;;;;;;;7.50;5.60;;;;;;;18.04;69.92;95990.62;107859;1283;25271;-72
2023/07/20 02:54:19;;;;;;;8.10;5.90;;;;;;;17.99;70.26;95999.58;107846;1283;22547;-73
2023/07/20 02:56:50;;;;;;;11.20;5.90;;;;;;;17.86;70.41;96009.85;107825;1283;23584;-73
2023/07/20 02:59:22;;;;;;;8.10;5.10;;;;;;;17.69;71.02;96002.98;107862;1278;23897;-72
2023/07/20 03:01:54;;;;;;;8.40;6.00;;;;;;;17.63;71.58;96002.81;107833;1277;25271;-72
2023/07/20 03:04:26;;;;;;;9.10;5.40;;;;;;;17.61;72.00;96006.02;107828;1283;22531;-73
2023/07/20 03:06:59;;;;;;;9.50;6.10;;;;;;;17.61;72.38;96001.05;107882;1279;25268;-72
2023/07/20 03:09:30;;;;;;;9.20;5.60;;;;;;;17.69;72.54;96005.66;107900;1283;22997;-72
2023/07/20 03:12:01;;;;;;;8.90;5.30;;;;;;;17.75;72.65;96010.73;107850;1283;26503;-73
2023/07/20 03:14:32;;;;;;;8.90;5.60;;;;;;;17.78;72.95;96004.73;107845;1283;22521;-72
2023/07/20 03:17:05;;;;;;;8.30;5.10;;;;;;;17.74;73.15;96010.81;107890;1283;25535;-72
2023/07/20 03:19:39;;;;;;;7.10;5.10;;;;;;;17.67;73.36;96014.72;107855;1283;22561;-73
2023/07/20 03:22:10;;;;;;;7.20;5.10;;;;;;;17.61;73.68;96018.21;107895;1283;22551;-72
2023/07/20 03:24:41;;;;;;;7.10;4.70;;;;;;;17.58;74.00;96023.01;107868;1283;22533;-72
2023/07/20 03:27:13;;;;;;;8.90;5.30;;;;;;;17.54;74.27;96023.65;107853;1280;25268;-72
2023/07/20 03:29:44;;;;;;;6.70;4.80;;;;;;;17.47;74.34;96017.34;107852;1283;22574;-72
2023/07/20 03:32:15;;;;;;;7.50;4.70;;;;;;;17.36;74.26;96019.61;107828;1283;22863;-72
2023/07/20 03:34:46;;;;;;;8.00;4.90;;;;;;;17.27;74.67;96030.17;107870;1283;22561;-72
2023/07/20 03:37:17;;;;;;;6.30;5.10;;;;;;;17.20;74.95;96031.45;107884;1276;22555;-72
2023/07/20 03:39:48;;;;;;;8.60;5.20;;;;;;;17.21;74.99;96029.32;107891;1283;22543;-72
2023/07/20 03:42:20;;;;;;;5.30;4.20;;;;;;;17.17;75.14;96026.60;107853;1283;22603;-72
2023/07/20 03:44:56;;;;;;;5.60;4.20;;;;;;;17.17;75.30;96027.88;107907;1281;22561;-72
2023/07/20 03:47:27;;;;;;;6.70;4.30;;;;;;;17.14;75.18;96032.92;107905;1283;22517;-72
2023/07/20 03:49:58;;;;;;;7.10;4.50;;;;;;;17.09;75.16;96039.17;107866;1270;23773;-72
2023/07/20 03:52:31;;;;;;;5.10;3.70;;;;;;;17.03;75.28;96046.18;107865;1279;22550;-72
2023/07/20 03:55:03;;;;;;;5.40;3.80;;;;;;;16.99;75.47;96043.06;107885;1280;23861;-72
2023/07/20 03:57:34;;;;;;;5.60;4.00;;;;;;;16.95;75.69;96047.30;107880;1280;25372;-73
2023/07/20 04:00:12;;;;;;;6.20;3.90;;;;;;;16.95;75.81;96062.66;107941;1283;25270;-72
2023/07/20 04:02:43;;;;;;;5.10;3.80;;;;;;;16.94;75.91;96059.51;107915;1283;25380;-72
2023/07/20 04:05:16;;;;;;;8.00;3.70;;;;;;;16.93;76.08;96060.54;107889;1283;22538;-72
2023/07/20 04:07:47;;;;;;;5.70;3.40;;;;;;;16.91;76.23;96058.88;107873;1283;22762;-72
2023/07/20 04:10:19;;;;;;;6.90;3.90;;;;;;;16.94;76.10;96060.96;107883;1283;25388;-72
2023/07/20 04:12:50;;;;;;;5.40;3.40;;;;;;;16.98;76.25;96060.48;107852;1277;22530;-72
2023/07/20 04:15:22;;;;;;;5.60;3.50;;;;;;;16.99;76.12;96065.31;107884;1283;22540;-72
2023/07/20 04:17:55;;;;;;;4.70;3.30;;;;;;;17.00;75.90;96066.73;107860;1279;22543;-72
2023/07/20 04:20:27;;;;;;;4.30;3.00;;;;;;;16.98;75.76;96064.75;107874;1266;24257;-72
2023/07/20 04:22:58;;;;;;;4.20;3.10;;;;;;;16.99;75.71;96073.98;107851;1277;22538;-72
2023/07/20 04:25:30;;;;;;;7.80;3.70;;;;;;;16.99;75.85;96085.06;107908;1277;22557;-72
2023/07/20 04:28:01;;;;;;;8.40;3.60;;;;;;;16.99;75.94;96092.40;108021;1277;22535;-72
2023/07/20 04:30:33;;;;;;;7.40;3.70;;;;;;;16.99;75.80;96095.30;108033;1278;22529;-72
2023/07/20 04:33:05;;;;;;;5.50;3.60;;;;;;;16.98;75.81;96096.95;107941;1283;25305;-72
2023/07/20 04:35:51;;;;;;;6.70;3.80;;;;;;;16.97;75.98;96101.91;107874;1278;22557;-72
2023/07/20 04:38:24;;;;;;;5.20;3.60;;;;;;;16.99;76.09;96107.15;107985;1277;25427;-72
2023/07/20 04:40:55;;;;;;;4.70;3.40;;;;;;;16.98;75.99;96107.54;107890;1283;22542;-73
2023/07/20 04:43:26;;;;;;;6.70;3.30;;;;;;;16.99;75.91;96113.15;107903;1283;25296;-72
2023/07/20 04:45:58;;;;;;;5.30;3.20;;;;;;;17.01;75.72;96118.17;107684;1282;256552;-72
2023/07/20 04:48:29;;;;;;;5.00;3.20;;;;;;;17.04;75.57;96123.89;107871;1283;22538;-72
2023/07/20 04:51:01;;;;;;;6.70;3.40;;;;;;;17.14;75.71;96127.56;107866;1283;22554;-73
2023/07/20 04:53:32;;;;;;;5.70;3.40;;;;;;;17.23;75.57;96128.17;107902;1283;22533;-72
2023/07/20 04:56:03;;;;;;;5.40;3.10;;;;;;;17.26;75.00;96123.52;107880;1283;22646;-72
2023/07/20 04:58:35;;;;;;;4.80;3.20;;;;;;;17.34;74.69;96129.87;107891;1277;22542;-72
2023/07/20 05:01:06;;;;;;;5.60;3.20;;;;;;;17.44;74.40;96133.40;107873;1277;22531;-72
2023/07/20 05:03:37;;;;;;;4.40;3.30;;;;;;;17.52;74.07;96123.45;107878;1283;22533;-72
2023/07/20 05:06:08;;;;;;;5.00;3.30;;;;;;;17.56;73.89;96123.44;107890;1276;22531;-72
2023/07/20 05:08:39;;;;;;;6.10;3.30;;;;;;;17.63;73.57;96123.13;107928;1283;22548;-72
2023/07/20 05:11:11;;;;;;;4.30;3.20;;;;;;;17.74;73.39;96136.13;107850;1276;22551;-72
2023/07/20 05:13:43;;;;;;;4.50;2.90;;;;;;;17.93;73.39;96147.83;107905;1283;22672;-72
2023/07/20 05:16:15;;;;;;;6.90;3.60;;;;;;;17.95;72.49;96150.80;107857;1282;22533;-72
2023/07/20 05:18:46;;;;;;;3.70;2.90;;;;;;;17.98;72.22;96153.74;107883;1283;22530;-72
2023/07/20 05:21:20;;;;;;;4.60;3.20;;;;;;;18.15;71.86;96156.23;107910;1279;22531;-73
2023/07/20 05:23:52;;;;;;;5.80;3.70;;;;;;;18.46;71.71;96160.61;107911;1283;22567;-72
2023/07/20 05:26:23;;;;;;;4.70;3.40;;;;;;;18.59;70.63;96153.77;107902;1283;22534;-72
2023/07/20 05:28:54;;;;;;;6.20;3.70;;;;;;;18.60;70.38;96156.32;107930;1277;22641;-72
2023/07/20 05:31:26;;;;;;;7.90;3.60;;;;;;;18.49;69.96;96163.46;107864;1283;22548;-72
2023/07/20 05:33:57;;;;;;;6.10;3.40;;;;;;;18.30;69.58;96171.71;107887;1283;22546;-73
2023/07/20 05:36:28;;;;;;;6.20;4.60;;;;;;;18.05;69.85;96175.42;107896;1283;23030;-72
2023/07/20 05:38:59;;;;;;;5.40;3.80;;;;;;;17.87;70.20;96182.34;107915;1283;22558;-72
2023/07/20 05:41:31;;;;;;;6.80;4.10;;;;;;;17.92;71.17;96184.95;107860;1277;22612;-72
2023/07/20 05:44:02;;;;;;;5.40;4.00;;;;;;;17.94;70.63;96189.71;107856;1280;22579;-72
2023/07/20 05:46:33;;;;;;;8.00;4.30;;;;;;;17.82;70.37;96193.08;107868;1281;25379;-72
2023/07/20 05:49:04;;;;;;;5.70;4.60;;;;;;;17.76;70.53;96201.27;107888;1281;22565;-72
2023/07/20 05:51:36;;;;;;;6.30;4.60;;;;;;;17.71;70.78;96203.45;107868;1283;22537;-72
2023/07/20 05:54:07;;;;;;;9.60;5.00;;;;;;;17.78;70.83;96201.71;107884;1282;22523;-72
2023/07/20 05:56:39;;;;;;;5.80;4.40;;;;;;;17.78;70.76;96201.78;107901;1283;25636;-72
2023/07/20 05:59:10;;;;;;;6.20;4.80;;;;;;;17.82;70.92;96197.98;107883;1277;22601;-72
2023/07/20 06:01:41;;;;;;;9.00;4.70;;;;;;;17.82;70.90;96196.30;107879;1283;24515;-72
2023/07/20 06:04:12;;;;;;;6.30;4.80;;;;;;;17.77;70.80;96191.02;107894;1277;25332;-72
2023/07/20 06:06:43;;;;;;;8.10;5.10;;;;;;;17.73;70.91;96195.34;107884;1276;22543;-72
2023/07/20 06:09:15;;;;;;;7.90;4.90;;;;;;;17.79;71.01;96189.02;107877;1283;25390;-72
2023/07/20 06:11:46;;;;;;;7.40;5.10;;;;;;;17.83;70.90;96185.69;107838;1276;22538;-72
2023/07/20 06:14:20;;;;;;;10.80;5.20;;;;;;;17.87;70.89;96186.86;107900;1283;22534;-72
2023/07/20 06:16:53;;;;;;;6.90;4.80;;;;;;;17.90;70.85;96190.44;107872;1283;22555;-72
2023/07/20 06:19:24;;;;;;;6.80;4.90;;;;;;;18.39;71.68;96191.53;107911;1283;22533;-72
2023/07/20 06:21:56;;;;;;;6.00;4.40;;;;;;;18.78;71.09;96190.55;107894;1283;29108;-71
2023/07/20 06:24:27;;;;;;;8.30;4.40;;;;;;;18.92;70.04;96189.02;107904;1283;22659;-72
2023/07/20 06:26:59;;;;;;;8.20;4.60;;;;;;;19.15;69.88;96191.49;107865;1283;22552;-72
2023/07/20 06:29:30;;;;;;;7.50;4.30;;;;;;;19.27;68.92;96195.58;107912;1277;25409;-72
2023/07/20 06:32:01;;;;;;;6.50;4.00;;;;;;;19.01;68.51;96192.27;107895;1283;22524;-72
2023/07/20 06:34:36;;;;;;;5.20;3.80;;;;;;;18.91;68.81;96188.87;107912;1283;25417;-72
2023/07/20 06:37:08;;;;;;;5.60;4.20;;;;;;;18.96;68.92;96182.54;107879;1283;22542;-72
2023/07/20 06:39:39;;;;;;;6.30;3.80;;;;;;;19.54;69.29;96179.05;107936;1281;23853;-73
2023/07/20 06:42:10;;;;;;;6.10;3.50;;;;;;;20.27;68.41;96181.67;107871;1277;22543;-72
2023/07/20 06:44:42;;;;;;;5.30;3.10;;;;;;;20.83;67.27;96181.50;107916;1283;22542;-72
2023/07/20 06:47:13;;;;;;;3.80;3.20;;;;;;;21.26;66.37;96177.02;107897;1283;22540;-73
2023/07/20 06:49:44;;;;;;;5.60;3.50;;;;;;;21.53;64.98;96174.98;107911;1283;22537;-72
2023/07/20 06:52:16;;;;;;;4.60;3.30;;;;;;;21.84;64.58;96174.71;107887;1283;25249;-72
2023/07/20 06:54:48;;;;;;;5.90;3.20;;;;;;;22.25;64.05;96173.27;107909;1283;22552;-72
2023/07/20 06:57:19;;;;;;;4.30;3.10;;;;;;;22.51;63.08;96171.95;107895;1283;22553;-72
2023/07/20 06:59:51;;;;;;;3.80;2.90;;;;;;;22.97;63.10;96171.08;107887;1283;22540;-72
2023/07/20 07:02:27;;;;;;;4.50;2.70;;;;;;;23.46;61.94;96165.04;107853;1283;22960;-72
2023/07/20 07:04:58;;;;;;;5.60;3.90;;;;;;;23.89;61.30;96162.04;107894;1279;25401;-72
2023/07/20 07:07:29;;;;;;;5.10;3.20;;;;;;;24.16;59.60;96164.08;107874;1283;22525;-72
2023/07/20 07:10:04;;;;;;;5.60;2.70;;;;;;;24.03;59.05;96162.84;107945;1283;22689;-72
2023/07/20 07:12:35;;;;;;;6.20;3.10;;;;;;;24.13;58.01;96164.52;107868;1283;22573;-72
2023/07/20 07:15:10;;;;;;;4.60;3.10;;;;;;;24.21;58.09;96164.73;107916;1283;26476;-72
2023/07/20 07:17:43;;;;;;;3.00;2.40;;;;;;;24.49;57.86;96159.36;107909;1283;23057;-72
2023/07/20 07:20:15;;;;;;;6.00;3.10;;;;;;;24.90;57.22;96154.67;107912;1276;22541;-73
2023/07/20 07:22:47;;;;;;;3.60;2.10;;;;;;;24.97;55.83;96157.63;107912;1283;22527;-72
2023/07/20 07:25:19;;;;;;;4.30;2.10;;;;;;;24.81;54.98;96155.95;107926;1276;22531;-73
2023/07/20 07:27:53;;;;;;;2.70;2.00;;;;;;;24.67;54.42;96154.41;107883;1283;22541;-72
2023/07/20 07:30:29;;;;;;;3.40;1.80;;;;;;;24.74;54.44;96155.38;107958;1276;26447;-73
2023/07/20 07:33:00;;;;;;;2.80;2.10;;;;;;;24.99;53.79;96155.56;107871;1276;25967;-72
2023/07/20 07:35:34;;;;;;;2.40;1.80;;;;;;;24.98;53.10;96155.77;107899;1276;22534;-72
2023/07/20 07:38:07;;;;;;;2.80;2.10;;;;;;;24.75;52.47;96152.52;107905;1270;22549;-73
2023/07/20 07:40:38;;;;;;;2.30;2.00;;;;;;;24.49;52.68;96151.54;107903;1277;24264;-72
2023/07/20 07:43:11;;;;;;;5.50;2.40;;;;;;;24.36;52.62;96155.64;107851;1276;22555;-72
2023/07/20 07:45:43;;;;;;;3.90;2.30;;;;;;;24.11;52.12;96158.47;107970;1283;22557;-73
2023/07/20 07:48:14;;;;;;;3.10;2.20;;;;;;;24.00;52.45;96163.58;107975;1283;22528;-73
2023/07/20 07:50:46;;;;;;;4.50;2.30;;;;;;;24.13;52.39;96161.43;107892;1283;22647;-72
2023/07/20 07:53:18;;;;;;;3.90;2.40;;;;;;;24.38;52.79;96164.86;107873;1283;22556;-73
2023/07/20 07:55:52;;;;;;;4.30;2.50;;;;;;;24.69;52.65;96160.30;107901;1283;22514;-72
2023/07/20 07:58:24;;;;;;;4.20;2.30;;;;;;;25.08;52.47;96157.38;107901;1283;24440;-73
2023/07/20 08:00:55;;;;;;;2.90;2.30;;;;;;;25.26;51.88;96163.40;107897;1283;22543;-72
2023/07/20 08:03:26;;;;;;;3.30;2.10;;;;;;;25.29;52.15;96163.33;107899;1283;23512;-72
2023/07/20 08:05:59;;;;;;;4.30;2.90;;;;;;;25.36;51.92;96167.69;107887;1276;22986;-73
2023/07/20 08:08:31;;;;;;;4.00;2.80;;;;;;;25.46;52.03;96169.72;107924;1283;22525;-73
2023/07/20 08:11:02;;;;;;;4.50;2.80;;;;;;;25.79;52.26;96170.94;107848;1283;22582;-73
2023/07/20 08:13:34;;;;;;;5.70;3.20;;;;;;;25.81;51.04;96171.71;107913;1277;22564;-73
2023/07/20 08:16:05;;;;;;;4.40;2.60;;;;;;;25.39;50.87;96175.76;107909;1283;25927;-73
2023/07/20 08:18:38;;;;;;;4.20;2.60;;;;;;;25.26;51.00;96177.75;107902;1276;22555;-73
2023/07/20 08:21:09;;;;;;;6.80;2.60;;;;;;;24.95;50.66;96177.46;107850;1276;22539;-73
2023/07/20 08:23:40;;;;;;;5.80;2.60;;;;;;;24.56;50.80;96180.46;107912;1283;25308;-72
2023/07/20 08:26:12;;;;;;;4.70;2.60;;;;;;;24.59;50.91;96186.35;107913;1283;25325;-73
2023/07/20 08:28:43;;;;;;;4.20;2.50;;;;;;;24.32;50.72;96194.00;107901;1279;22553;-73
2023/07/20 08:31:14;;;;;;;5.10;2.80;;;;;;;24.05;51.28;96192.48;107909;1276;26513;-73
2023/07/20 08:33:46;;;;;;;6.30;2.80;;;;;;;24.19;51.85;96195.36;107916;1283;23074;-72
2023/07/20 08:36:20;;;;;;;4.50;2.70;;;;;;;24.32;51.62;96198.57;107902;1279;22537;-73
2023/07/20 08:38:52;;;;;;;4.00;2.60;;;;;;;24.13;51.59;96200.52;107907;1283;22644;-72
2023/07/20 08:41:24;;;;;;;3.20;2.50;;;;;;;23.76;51.55;96197.96;107858;1283;22541;-73
2023/07/20 08:43:58;;;;;;;3.50;2.50;;;;;;;23.45;51.93;96206.69;107934;1283;22535;-73
2023/07/20 08:46:29;;;;;;;3.90;2.20;;;;;;;23.48;53.00;96205.11;107899;1280;25252;-73
2023/07/20 08:49:02;;;;;;;3.10;2.30;;;;;;;23.81;53.57;96201.73;107930;1283;22531;-73
2023/07/20 08:51:34;;;;;;;3.70;2.60;;;;;;;24.10;53.59;96200.86;107859;1280;22530;-72
2023/07/20 08:54:07;;;;;;;3.40;2.60;;;;;;;24.24;52.59;96195.34;107897;1283;22530;-73
2023/07/20 08:56:39;;;;;;;3.90;2.20;;;;;;;24.36;52.47;96197.60;107899;1283;22534;-72
2023/07/20 08:59:14;;;;;;;4.00;2.40;;;;;;;24.33;52.04;96199.05;107933;1283;22752;-73
2023/07/20 09:01:47;;;;;;;3.40;2.20;;;;;;;24.03;51.72;96198.19;107845;1277;24402;-73
2023/07/20 09:04:19;;;;;;;3.40;2.20;;;;;;;23.36;51.57;96204.74;107905;1277;22541;-73
2023/07/20 09:06:52;;;;;;;3.90;2.70;;;;;;;23.01;52.60;96206.96;107903;1275;22542;-73
2023/07/20 09:09:23;;;;;;;3.50;2.20;;;;;;;22.78;53.08;96205.36;107909;1277;22537;-73
2023/07/20 09:11:54;;;;;;;3.50;2.20;;;;;;;22.49;53.21;96204.96;107857;1279;24286;-73
2023/07/20 09:14:26;;;;;;;2.90;2.30;;;;;;;22.30;53.33;96207.31;107914;1283;22530;-73
2023/07/20 09:16:57;;;;;;;4.00;2.10;;;;;;;22.22;53.80;96209.42;107936;1283;22552;-73
2023/07/20 09:19:29;;;;;;;4.70;2.50;;;;;;;22.28;53.97;96206.73;107876;1277;24247;-73
2023/07/20 09:22:00;;;;;;;5.90;2.90;;;;;;;22.51;55.17;96203.59;107889;1283;22736;-73
2023/07/20 09:24:33;;;;;;;5.10;2.50;;;;;;;22.75;55.09;96202.54;107913;1283;22549;-73
2023/07/20 09:27:04;;;;;;;4.10;2.70;;;;;;;22.64;54.23;96203.63;107888;1274;23682;-73
2023/07/20 09:29:50;;;;;;;8.80;3.30;;;;;;;22.50;54.50;96197.02;107913;1283;22533;-73
2023/07/20 09:32:23;;;;;;;4.60;3.00;;;;;;;22.50;54.65;96202.88;107858;1276;22657;-73
2023/07/20 09:34:56;;;;;;;5.50;2.60;;;;;;;22.61;54.78;96202.88;107912;1283;22959;-73
2023/07/20 09:37:27;;;;;;;4.70;2.80;;;;;;;22.69;55.06;96197.97;107895;1283;22526;-73
2023/07/20 09:39:59;;;;;;;2.70;2.30;;;;;;;22.94;55.28;96198.39;107888;1283;22558;-73
2023/07/20 09:42:31;;;;;;;3.70;2.40;;;;;;;23.21;55.11;96203.57;107928;1283;25357;-73
2023/07/20 09:45:02;;;;;;;5.30;2.80;;;;;;;23.31;54.95;96202.13;107899;1283;22580;-73
2023/07/20 09:47:36;;;;;;;5.10;3.00;;;;;;;23.18;54.70;96216.75;107883;1276;23509;-73
2023/07/20 09:50:10;;;;;;;4.00;2.70;;;;;;;22.95;54.74;96217.25;107963;1283;23794;-73
2023/07/20 09:52:45;;;;;;;5.30;2.90;;;;;;;22.89;54.98;96220.88;107867;1283;22684;-73
2023/07/20 09:55:16;;;;;;;3.90;3.00;;;;;;;22.80;55.37;96219.75;108014;1283;22527;-73
2023/07/20 09:57:48;;;;;;;3.20;2.60;;;;;;;22.88;55.31;96218.23;107895;1277;22600;-73
2023/07/20 10:00:21;;;;;;;3.70;2.40;;;;;;;22.95;55.29;96217.73;107920;1283;22527;-73
2023/07/20 10:02:56;;;;;;;4.70;2.60;;;;;;;22.84;54.71;96209.45;107880;1276;22524;-74
2023/07/20 10:05:33;;;;;;;3.70;2.40;;;;;;;22.75;56.03;96205.39;107908;1283;22534;-73
2023/07/20 10:08:09;;;;;;;3.20;2.20;;;;;;;22.85;55.37;96203.76;107856;1283;22921;-73
2023/07/20 10:10:42;;;;;;;3.80;2.80;;;;;;;22.81;55.72;96209.32;107904;1283;25426;-74
2023/07/20 10:13:18;;;;;;;4.50;2.80;;;;;;;22.78;55.38;96210.29;107872;1283;22540;-73
2023/07/20 10:15:55;;;;;;;4.40;2.70;;;;;;;22.51;55.14;96217.11;107899;1280;22952;-73
2023/07/20 10:18:32;;;;;;;3.80;2.30;;;;;;;22.31;55.73;96219.91;107885;1283;22584;-73
2023/07/20 10:21:07;;;;;;;2.30;2.00;;;;;;;22.35;56.37;96218.73;107893;1277;22550;-73
2023/07/20 10:23:43;;;;;;;3.90;2.50;;;;;;;22.49;56.50;96212.36;107889;1283;22578;-73
2023/07/20 10:26:16;;;;;;;3.00;2.50;;;;;;;22.47;56.32;96208.09;107931;1283;22543;-73
2023/07/20 10:28:49;;;;;;;4.90;2.50;;;;;;;22.47;56.18;96213.88;107853;1280;22560;-73
2023/07/20 10:31:21;;;;;;;3.10;2.00;;;;;;;22.52;56.69;96216.04;107873;1276;22570;-73
2023/07/20 10:33:53;;;;;;;3.40;2.20;;;;;;;22.70;56.43;96208.64;107919;1277;22534;-73
2023/07/20 10:36:29;;;;;;;6.20;2.40;;;;;;;22.75;55.95;96203.98;107927;1283;22585;-73
2023/07/20 10:39:00;;;;;;;3.60;2.30;;;;;;;22.80;55.86;96206.30;107871;1276;25312;-73
2023/07/20 10:41:34;;;;;;;3.30;2.30;;;;;;;22.66;55.60;96213.77;107875;1283;22544;-73
2023/07/20 10:44:08;;;;;;;3.10;2.00;;;;;;;22.40;55.48;96214.71;107966;1283;22571;-73
2023/07/20 10:46:46;;;;;;;3.70;2.30;;;;;;;22.33;56.22;96215.91;107932;1283;22557;-73
2023/07/20 10:49:21;;;;;;;2.70;1.90;;;;;;;22.31;56.32;96221.22;107881;1277;24295;-73
2023/07/20 10:52:00;;;;;;;4.00;2.50;;;;;;;22.33;56.29;96209.44;107891;1277;22541;-73
2023/07/20 10:54:52;;;;;;;2.50;1.90;;;;;;;22.39;56.12;96209.91;107892;1282;22531;-73
2023/07/20 10:57:30;;;;;;;2.80;2.00;;;;;;;22.61;56.80;96214.07;107928;1283;22540;-73
2023/07/20 11:00:22;;;;;;;4.70;2.10;;;;;;;22.50;55.91;96214.16;107891;1283;22554;-73
2023/07/20 11:03:02;;;;;;;3.00;2.30;;;;;;;22.26;56.16;96216.04;107850;1277;22531;-73
2023/07/20 11:05:42;;;;;;;3.90;1.70;;;;;;;22.12;56.47;96215.84;107935;1283;22661;-73
2023/07/20 11:08:34;;;;;;;4.00;1.80;;;;;;;22.15;56.14;96211.02;107934;1283;25421;-73
2023/07/20 11:11:25;;;;;;;3.10;1.80;;;;;;;22.23;56.45;96211.08;107902;1277;22586;-73
2023/07/20 11:14:04;;;;;;;2.00;1.80;;;;;;;22.27;55.67;96210.75;107928;1283;22546;-74
2023/07/20 11:16:38;;;;;;;2.80;2.00;;;;;;;22.24;55.22;96204.37;107917;1283;24428;-73
2023/07/20 11:19:17;;;;;;;3.50;2.10;;;;;;;22.36;55.46;96205.15;107937;1283;22643;-73
2023/07/20 11:21:51;;;;;;;1.90;1.60;;;;;;;22.45;55.38;96200.04;107928;1283;22534;-73
2023/07/20 11:24:23;;;;;;;2.10;1.60;;;;;;;22.61;55.29;96201.35;107938;1283;22531;-73
2023/07/20 11:26:56;;;;;;;2.50;1.40;;;;;;;22.68;53.91;96200.65;107855;1280;22551;-73
2023/07/20 11:29:30;;;;;;;2.60;1.40;;;;;;;22.57;52.83;96195.58;107917;1260;22558;-73
2023/07/20 11:32:02;;;;;;;2.50;1.70;;;;;;;22.55;52.63;96188.15;107904;1276;24255;-73
2023/07/20 11:34:35;;;;;;;2.00;1.50;;;;;;;22.60;52.32;96189.44;107898;1283;22531;-73
2023/07/20 11:37:08;;;;;;;1.70;1.30;;;;;;;22.64;52.35;96188.55;107905;1280;22687;-73
2023/07/20 11:39:39;;;;;;;3.70;1.90;;;;;;;22.72;52.71;96192.92;107901;1279;22534;-73
2023/07/20 11:42:12;;;;;;;2.40;1.70;;;;;;;22.84;52.70;96192.55;107931;1280;22639;-73
2023/07/20 11:44:44;;;;;;;2.20;1.60;;;;;;;22.85;52.22;96188.70;107797;1280;22545;-73
2023/07/20 11:47:15;;;;;;;2.20;1.90;;;;;;;22.73;52.07;96196.95;107859;1283;22657;-73
2023/07/20 11:49:53;;;;;;;1.60;1.50;;;;;;;22.67;52.50;96200.04;107795;1276;25369;-73